createdAt,value
2017-08-07T00:01:16.879Z,4.90
2017-08-07T00:03:43.547Z,5.00
2017-08-07T00:06:10.164Z,4.70
2017-08-07T00:08:36.930Z,4.60
2017-08-07T00:11:03.523Z,5.03
2017-08-07T00:13:30.119Z,5.00
2017-08-07T00:15:56.750Z,4.97
2017-08-07T00:18:23.343Z,4.67
2017-08-07T00:20:49.926Z,4.40
2017-08-07T00:23:16.556Z,4.43
2017-08-07T00:25:43.165Z,5.47
2017-08-07T00:28:22.604Z,5.20
2017-08-07T00:30:49.203Z,4.47
2017-08-07T00:33:15.798Z,4.93
2017-08-07T00:35:42.457Z,4.60
2017-08-07T00:38:09.176Z,5.30
2017-08-07T00:40:35.754Z,5.07
2017-08-07T00:43:02.338Z,5.13
2017-08-07T00:45:28.925Z,5.10
2017-08-07T00:47:55.506Z,4.93
2017-08-07T00:50:22.102Z,5.00
2017-08-07T00:52:48.711Z,5.40
2017-08-07T00:55:15.376Z,4.83
2017-08-07T00:57:41.954Z,4.97
2017-08-07T01:00:08.569Z,4.80
2017-08-07T01:02:35.154Z,5.23
2017-08-07T01:05:01.773Z,4.90
2017-08-07T01:07:28.375Z,5.97
2017-08-07T01:09:54.990Z,5.07
2017-08-07T01:12:21.580Z,5.07
2017-08-07T01:14:48.163Z,4.97
2017-08-07T01:17:14.750Z,4.80
2017-08-07T01:19:41.427Z,4.97
2017-08-07T01:22:08.014Z,5.23
2017-08-07T01:24:34.610Z,4.70
2017-08-07T01:27:01.219Z,5.37
2017-08-07T01:29:27.806Z,5.27
2017-08-07T01:31:54.386Z,5.33
2017-08-07T01:34:20.986Z,5.40
2017-08-07T01:36:47.561Z,5.40
2017-08-07T01:39:14.166Z,5.00
2017-08-07T01:41:40.777Z,4.83
2017-08-07T01:44:07.412Z,5.13
2017-08-07T01:46:34.035Z,5.23
2017-08-07T01:49:00.624Z,5.10
2017-08-07T01:51:27.370Z,5.00
2017-08-07T01:53:53.948Z,5.57
2017-08-07T01:56:20.535Z,4.93
2017-08-07T01:58:47.134Z,5.20
2017-08-07T02:01:13.807Z,5.37
2017-08-07T02:03:40.423Z,5.43
2017-08-07T02:06:07.007Z,5.40
2017-08-07T02:08:33.606Z,5.23
2017-08-07T02:11:00.190Z,5.20
2017-08-07T02:13:26.778Z,5.00
2017-08-07T02:15:53.366Z,5.50
2017-08-07T02:18:19.998Z,4.90
2017-08-07T02:20:46.590Z,5.30
2017-08-07T02:23:13.286Z,4.73
2017-08-07T02:25:40.234Z,5.00
2017-08-07T02:28:06.810Z,5.13
2017-08-07T02:30:33.397Z,5.00
2017-08-07T02:33:00.014Z,5.27
2017-08-07T02:35:26.610Z,5.23
2017-08-07T02:37:53.190Z,5.27
2017-08-07T02:40:19.770Z,5.23
2017-08-07T02:42:46.423Z,5.10
2017-08-07T02:45:13.034Z,5.30
2017-08-07T02:47:39.675Z,5.20
2017-08-07T02:50:06.252Z,5.23
2017-08-07T02:52:32.878Z,5.10
2017-08-07T02:54:59.462Z,5.50
2017-08-07T02:57:26.066Z,5.30
2017-08-07T02:59:52.697Z,5.40
2017-08-07T03:02:19.254Z,5.63
2017-08-07T03:04:45.846Z,5.37
2017-08-07T03:07:12.442Z,5.50
2017-08-07T03:09:39.070Z,5.70
2017-08-07T03:12:05.774Z,5.80
2017-08-07T03:14:32.447Z,5.20
2017-08-07T03:16:59.048Z,5.27
2017-08-07T03:19:25.643Z,5.77
2017-08-07T03:21:52.224Z,5.30
2017-08-07T03:24:25.198Z,5.60
2017-08-07T03:26:51.780Z,5.03
2017-08-07T03:29:18.368Z,5.30
2017-08-07T03:31:44.965Z,5.40
2017-08-07T03:34:11.768Z,4.83
2017-08-07T03:36:38.378Z,5.30
2017-08-07T03:39:04.962Z,4.87
2017-08-07T03:41:31.575Z,5.40
2017-08-07T03:43:58.156Z,5.17
2017-08-07T03:46:24.746Z,5.10
2017-08-07T03:48:51.325Z,5.30
2017-08-07T03:51:17.923Z,5.20
2017-08-07T03:53:44.522Z,5.53
2017-08-07T03:56:11.177Z,5.10
2017-08-07T03:58:37.911Z,5.60
2017-08-07T04:01:04.510Z,5.80
2017-08-07T04:03:31.091Z,5.43
2017-08-07T04:05:57.706Z,5.40
2017-08-07T04:08:24.275Z,5.10
2017-08-07T04:10:50.878Z,5.17
2017-08-07T04:13:17.482Z,5.67
2017-08-07T04:15:44.237Z,5.10
2017-08-07T04:18:10.933Z,5.67
2017-08-07T04:20:37.550Z,5.70
2017-08-07T04:23:04.139Z,5.50
2017-08-07T04:25:30.738Z,5.70
2017-08-07T04:27:57.326Z,5.90
2017-08-07T04:30:23.906Z,5.47
2017-08-07T04:32:50.568Z,5.40
2017-08-07T04:35:17.154Z,5.43
2017-08-07T04:37:43.746Z,4.80
2017-08-07T04:40:10.849Z,5.50
2017-08-07T04:42:37.442Z,5.27
2017-08-07T04:45:04.027Z,5.10
2017-08-07T04:47:30.635Z,5.50
2017-08-07T04:49:57.213Z,5.13
2017-08-07T04:52:23.806Z,6.03
2017-08-07T04:54:50.386Z,5.70
2017-08-07T04:57:16.989Z,5.37
2017-08-07T04:59:43.631Z,5.63
2017-08-07T05:02:10.223Z,5.57
2017-08-07T05:04:36.803Z,6.07
2017-08-07T05:07:03.403Z,5.50
2017-08-07T05:09:29.986Z,5.20
2017-08-07T05:11:56.590Z,7.20
2017-08-07T05:14:23.166Z,6.40
2017-08-07T05:16:49.762Z,6.23
2017-08-07T05:19:16.347Z,6.13
2017-08-07T05:21:43.152Z,5.60
2017-08-07T05:24:09.747Z,5.77
2017-08-07T05:26:36.328Z,5.50
2017-08-07T05:29:02.928Z,5.83
2017-08-07T05:31:29.517Z,6.30
2017-08-07T05:33:56.114Z,5.57
2017-08-07T05:36:22.692Z,6.07
2017-08-07T05:38:49.286Z,5.67
2017-08-07T05:41:15.863Z,5.67
2017-08-07T05:43:42.487Z,5.00
2017-08-07T05:46:09.093Z,5.70
2017-08-07T05:48:35.674Z,5.93
2017-08-07T05:51:02.259Z,5.23
2017-08-07T05:53:28.876Z,5.40
2017-08-07T05:55:55.463Z,5.30
2017-08-07T05:58:22.271Z,5.40
2017-08-07T06:00:48.854Z,5.40
2017-08-07T06:03:15.454Z,4.83
2017-08-07T06:05:42.049Z,5.33
2017-08-07T06:08:08.971Z,4.87
2017-08-07T06:10:35.589Z,4.40
2017-08-07T06:13:02.187Z,4.47
2017-08-07T06:15:28.776Z,4.97
2017-08-07T06:17:55.367Z,4.43
2017-08-07T06:20:21.952Z,4.60
2017-08-07T06:22:48.531Z,4.40
2017-08-07T06:25:15.131Z,4.23
2017-08-07T06:27:41.724Z,4.20
2017-08-07T06:30:08.335Z,4.80
2017-08-07T06:32:34.927Z,4.63
2017-08-07T06:35:01.529Z,4.40
2017-08-07T06:37:28.107Z,4.13
2017-08-07T06:40:10.471Z,4.77
2017-08-07T06:42:38.607Z,4.23
2017-08-07T06:45:10.721Z,4.20
2017-08-07T06:47:40.080Z,3.80
2017-08-07T06:50:09.000Z,4.00
2017-08-07T06:52:38.434Z,4.50
2017-08-07T06:55:07.564Z,4.47
2017-08-07T06:57:34.188Z,4.53
2017-08-07T07:00:00.766Z,4.10
2017-08-07T07:02:27.351Z,4.00
2017-08-07T07:04:53.946Z,4.00
2017-08-07T07:07:20.563Z,4.27
2017-08-07T07:09:47.172Z,3.80
2017-08-07T07:12:13.738Z,3.70
2017-08-07T07:14:40.379Z,3.63
2017-08-07T07:17:06.958Z,3.83
2017-08-07T07:19:33.553Z,4.00
2017-08-07T07:22:00.126Z,4.33
2017-08-07T07:24:26.737Z,4.20
2017-08-07T07:26:53.302Z,4.10
2017-08-07T07:29:19.902Z,4.00
2017-08-07T07:31:46.483Z,4.30
2017-08-07T07:34:13.067Z,4.30
2017-08-07T07:36:40.614Z,4.27
2017-08-07T07:39:07.201Z,3.93
2017-08-07T07:41:33.787Z,3.90
2017-08-07T07:44:00.547Z,3.93
2017-08-07T07:46:27.131Z,3.87
2017-08-07T07:48:53.713Z,3.80
2017-08-07T07:51:20.303Z,4.30
2017-08-07T07:53:46.878Z,3.60
2017-08-07T07:56:13.482Z,4.03
2017-08-07T07:58:40.119Z,3.80
2017-08-07T08:01:06.754Z,4.17
2017-08-07T08:03:33.326Z,3.70
2017-08-07T08:05:59.898Z,3.60
2017-08-07T08:08:26.486Z,4.50
2017-08-07T08:10:53.062Z,3.83
2017-08-07T08:13:19.646Z,3.80
2017-08-07T08:15:46.241Z,3.57
2017-08-07T08:18:16.508Z,3.70
2017-08-07T08:20:43.174Z,3.73
2017-08-07T08:23:09.809Z,3.33
2017-08-07T08:25:36.438Z,3.90
2017-08-07T08:28:03.018Z,3.53
2017-08-07T08:30:29.602Z,3.97
2017-08-07T08:32:56.181Z,3.40
2017-08-07T08:35:22.872Z,3.80
2017-08-07T08:37:57.613Z,3.80
2017-08-07T08:40:24.246Z,3.73
2017-08-07T08:42:50.810Z,4.00
2017-08-07T08:45:17.402Z,3.43
2017-08-07T08:47:44.020Z,3.57
2017-08-07T08:50:10.689Z,3.87
2017-08-07T08:52:37.259Z,3.70
2017-08-07T08:55:03.848Z,3.80
2017-08-07T08:57:30.441Z,3.50
2017-08-07T08:59:57.122Z,3.63
2017-08-07T09:02:23.699Z,3.93
2017-08-07T09:04:50.842Z,4.07
2017-08-07T09:07:17.424Z,3.83
2017-08-07T09:09:44.124Z,3.80
2017-08-07T09:12:10.731Z,3.63
2017-08-07T09:14:37.358Z,3.97
2017-08-07T09:17:04.000Z,3.40
2017-08-07T09:19:30.590Z,4.00
2017-08-07T09:21:57.418Z,4.00
2017-08-07T09:24:24.220Z,3.60
2017-08-07T09:26:51.149Z,3.67
2017-08-07T09:29:17.771Z,4.20
2017-08-07T09:31:44.346Z,3.90
2017-08-07T09:34:10.988Z,3.83
2017-08-07T09:36:37.570Z,3.87
2017-08-07T09:39:04.180Z,4.00
2017-08-07T09:41:30.782Z,3.73
2017-08-07T09:43:57.371Z,3.80
2017-08-07T09:46:23.975Z,3.90
2017-08-07T09:48:50.872Z,3.60
2017-08-07T09:51:17.529Z,3.80
2017-08-07T09:53:44.146Z,3.70
2017-08-07T09:56:10.746Z,4.10
2017-08-07T09:58:37.332Z,3.97
2017-08-07T10:01:03.932Z,3.80
2017-08-07T10:03:37.482Z,3.47
2017-08-07T10:06:04.066Z,3.60
2017-08-07T10:08:30.654Z,3.67
2017-08-07T10:10:57.298Z,3.63
2017-08-07T10:13:23.886Z,3.43
2017-08-07T10:15:50.645Z,3.17
2017-08-07T10:18:17.285Z,3.43
2017-08-07T10:20:43.902Z,3.67
2017-08-07T10:23:16.488Z,3.00
2017-08-07T10:25:43.063Z,3.00
2017-08-07T10:28:09.660Z,3.30
2017-08-07T10:30:36.433Z,3.30
2017-08-07T10:33:03.056Z,3.13
2017-08-07T10:35:29.701Z,3.10
2017-08-07T10:37:56.306Z,3.13
2017-08-07T10:40:22.997Z,3.47
2017-08-07T10:42:49.633Z,2.87
2017-08-07T10:45:16.373Z,3.03
2017-08-07T10:47:43.036Z,3.17
2017-08-07T10:50:09.666Z,3.33
2017-08-07T10:52:36.251Z,3.20
2017-08-07T10:55:02.849Z,3.30
2017-08-07T10:57:29.438Z,3.10
2017-08-07T11:00:02.633Z,3.27
2017-08-07T11:02:29.224Z,3.10
2017-08-07T11:04:55.802Z,3.20
2017-08-07T11:07:22.394Z,3.40
2017-08-07T11:09:49.223Z,3.13
2017-08-07T11:12:15.843Z,2.67
2017-08-07T11:14:42.442Z,2.77
2017-08-07T11:17:09.037Z,2.73
2017-08-07T11:19:35.610Z,2.63
2017-08-07T11:22:02.226Z,2.60
2017-08-07T11:24:28.807Z,2.40
2017-08-07T11:26:55.477Z,3.07
2017-08-07T11:29:22.098Z,2.70
2017-08-07T11:31:48.731Z,2.90
2017-08-07T11:34:15.332Z,2.70
2017-08-07T11:36:41.918Z,2.50
2017-08-07T11:39:08.652Z,2.50
2017-08-07T11:41:35.238Z,2.70
2017-08-07T11:44:01.814Z,2.70
2017-08-07T11:46:28.409Z,2.43
2017-08-07T11:48:54.993Z,2.60
2017-08-07T11:51:21.613Z,2.53
2017-08-07T11:53:48.204Z,2.40
2017-08-07T11:56:14.842Z,2.50
2017-08-07T11:58:41.454Z,2.80
2017-08-07T12:01:08.049Z,2.73
2017-08-07T12:03:34.640Z,2.43
2017-08-07T12:06:01.222Z,2.60
2017-08-07T12:08:27.818Z,2.20
2017-08-07T12:10:54.440Z,2.23
2017-08-07T12:13:21.026Z,2.90
2017-08-07T12:15:47.614Z,2.50
2017-08-07T12:18:14.272Z,2.30
2017-08-07T12:20:40.933Z,2.50
2017-08-07T12:23:08.241Z,2.30
2017-08-07T12:25:39.826Z,2.80
2017-08-07T12:28:08.924Z,2.60
2017-08-07T12:30:35.711Z,2.43
2017-08-07T12:33:02.358Z,2.50
2017-08-07T12:35:28.949Z,2.90
2017-08-07T12:37:55.526Z,2.67
2017-08-07T12:40:23.107Z,2.47
2017-08-07T12:42:49.713Z,2.80
2017-08-07T12:45:16.290Z,2.50
2017-08-07T12:47:42.888Z,2.80
2017-08-07T12:50:09.649Z,2.50
2017-08-07T12:52:36.260Z,2.57
2017-08-07T12:55:02.857Z,2.53
2017-08-07T12:57:29.489Z,2.43
2017-08-07T12:59:56.139Z,2.40
2017-08-07T13:02:22.748Z,2.77
2017-08-07T13:04:49.338Z,2.40
2017-08-07T13:07:17.772Z,2.50
2017-08-07T13:09:45.665Z,2.40
2017-08-07T13:12:12.416Z,2.70
2017-08-07T13:14:39.040Z,2.37
2017-08-07T13:17:06.254Z,2.63
2017-08-07T13:19:32.851Z,2.60
2017-08-07T13:21:59.445Z,2.37
2017-08-07T13:24:26.037Z,2.47
2017-08-07T13:26:52.614Z,2.40
2017-08-07T13:29:19.206Z,2.27
2017-08-07T13:31:45.846Z,2.50
2017-08-07T13:34:12.484Z,2.63
2017-08-07T13:36:39.078Z,2.20
2017-08-07T13:39:05.870Z,2.47
2017-08-07T13:41:32.515Z,2.50
2017-08-07T13:43:59.118Z,2.50
2017-08-07T13:46:25.734Z,2.73
2017-08-07T13:48:52.345Z,2.47
2017-08-07T13:51:19.025Z,2.17
2017-08-07T13:53:45.604Z,2.40
2017-08-07T13:56:12.187Z,2.70
2017-08-07T13:58:38.971Z,2.63
2017-08-07T14:01:06.268Z,2.60
2017-08-07T14:03:32.876Z,2.77
2017-08-07T14:05:59.458Z,2.60
2017-08-07T14:08:26.046Z,2.67
2017-08-07T14:10:52.630Z,2.50
2017-08-07T14:13:19.224Z,2.60
2017-08-07T14:15:45.806Z,2.33
2017-08-07T14:18:12.449Z,2.50
2017-08-07T14:20:39.092Z,2.40
2017-08-07T14:23:05.816Z,2.30
2017-08-07T14:25:32.414Z,2.30
2017-08-07T14:27:59.011Z,2.40
2017-08-07T14:30:25.602Z,2.47
2017-08-07T14:32:52.206Z,2.40
2017-08-07T14:35:18.800Z,2.50
2017-08-07T14:37:45.414Z,2.37
2017-08-07T14:40:12.015Z,2.53
2017-08-07T14:42:38.804Z,2.10
2017-08-07T14:45:09.442Z,2.80
2017-08-07T14:47:39.820Z,2.63
2017-08-07T14:50:11.235Z,2.40
2017-08-07T14:52:43.621Z,2.43
2017-08-07T14:55:10.249Z,3.07
2017-08-07T14:57:36.876Z,2.43
2017-08-07T15:00:03.505Z,2.50
2017-08-07T15:02:30.086Z,2.83
2017-08-07T15:04:56.674Z,2.50
2017-08-07T15:07:23.254Z,3.10
2017-08-07T15:09:49.850Z,2.67
2017-08-07T15:12:16.850Z,2.50
2017-08-07T15:14:43.455Z,3.00
2017-08-07T15:17:10.086Z,2.70
2017-08-07T15:19:36.699Z,2.97
2017-08-07T15:22:03.319Z,2.60
2017-08-07T15:24:29.913Z,2.50
2017-08-07T15:26:56.505Z,2.90
2017-08-07T15:29:23.083Z,3.00
2017-08-07T15:31:49.688Z,2.80
2017-08-07T15:34:16.291Z,2.90
2017-08-07T15:36:42.870Z,3.03
2017-08-07T15:39:09.559Z,2.80
2017-08-07T15:41:36.226Z,3.27
2017-08-07T15:44:02.822Z,2.70
2017-08-07T15:46:29.403Z,2.80
2017-08-07T15:48:56.002Z,3.00
2017-08-07T15:51:22.617Z,2.90
2017-08-07T15:53:49.195Z,2.70
2017-08-07T15:56:16.607Z,2.80
2017-08-07T15:58:43.185Z,2.57
2017-08-07T16:01:09.798Z,2.67
2017-08-07T16:03:36.718Z,2.60
2017-08-07T16:06:03.446Z,2.77
2017-08-07T16:08:30.054Z,2.87
2017-08-07T16:10:56.634Z,2.67
2017-08-07T16:13:23.226Z,2.70
2017-08-07T16:15:49.814Z,2.80
2017-08-07T16:18:16.399Z,2.90
2017-08-07T16:20:43.003Z,3.00
2017-08-07T16:23:09.603Z,3.00
2017-08-07T16:25:36.411Z,3.17
2017-08-07T16:28:03.002Z,3.13
2017-08-07T16:30:30.374Z,3.50
2017-08-07T16:32:57.015Z,3.17
2017-08-07T16:35:23.616Z,2.93
2017-08-07T16:37:50.198Z,2.90
2017-08-07T16:40:16.782Z,3.10
2017-08-07T16:42:43.378Z,3.00
2017-08-07T16:45:10.018Z,3.47
2017-08-07T16:47:36.602Z,2.80
2017-08-07T16:50:03.302Z,3.00
2017-08-07T16:52:29.926Z,3.13
2017-08-07T16:54:56.494Z,2.90
2017-08-07T16:57:23.119Z,3.00
2017-08-07T16:59:49.703Z,2.90
2017-08-07T17:02:16.292Z,3.10
2017-08-07T17:04:42.920Z,3.13
2017-08-07T17:07:09.549Z,3.00
2017-08-07T17:09:36.343Z,2.90
2017-08-07T17:12:03.833Z,3.57
2017-08-07T17:14:30.496Z,2.90
2017-08-07T17:16:57.105Z,3.40
2017-08-07T17:19:29.591Z,3.33
2017-08-07T17:21:56.176Z,3.60
2017-08-07T17:24:22.749Z,3.47
2017-08-07T17:26:57.133Z,3.77
2017-08-07T17:29:23.715Z,3.70
2017-08-07T17:31:50.306Z,3.33
2017-08-07T17:34:16.895Z,3.30
2017-08-07T17:36:43.601Z,3.53
2017-08-07T17:39:10.224Z,3.67
2017-08-07T17:41:36.845Z,4.20
2017-08-07T17:44:03.454Z,3.80
2017-08-07T17:46:30.051Z,3.67
2017-08-07T17:48:56.651Z,3.77
2017-08-07T17:51:23.286Z,3.20
2017-08-07T17:53:50.430Z,3.60
2017-08-07T17:56:17.014Z,3.50
2017-08-07T17:58:43.595Z,4.47
2017-08-07T18:01:10.250Z,3.83
2017-08-07T18:03:38.124Z,3.80
2017-08-07T18:06:04.808Z,3.80
2017-08-07T18:08:31.383Z,3.17
2017-08-07T18:10:57.975Z,3.53
2017-08-07T18:13:26.095Z,3.70
2017-08-07T18:15:52.698Z,3.07
2017-08-07T18:18:22.476Z,3.80
2017-08-07T18:20:57.090Z,3.47
2017-08-07T18:23:23.665Z,3.70
2017-08-07T18:25:50.260Z,3.70
2017-08-07T18:28:16.843Z,3.40
2017-08-07T18:30:43.439Z,3.80
2017-08-07T18:33:10.043Z,3.80
2017-08-07T18:35:36.631Z,3.30
2017-08-07T18:38:03.284Z,3.33
2017-08-07T18:40:29.879Z,3.50
2017-08-07T18:43:02.650Z,3.63
2017-08-07T18:45:29.242Z,3.57
2017-08-07T18:47:55.835Z,4.10
2017-08-07T18:50:23.620Z,4.30
2017-08-07T18:52:54.160Z,3.70
2017-08-07T18:55:22.069Z,4.10
2017-08-07T18:57:48.819Z,4.50
2017-08-07T19:00:16.619Z,4.40
2017-08-07T19:02:43.487Z,4.40
2017-08-07T19:05:10.083Z,4.90
2017-08-07T19:07:36.735Z,4.70
2017-08-07T19:10:03.314Z,4.50
2017-08-07T19:12:29.907Z,4.03
2017-08-07T19:14:56.482Z,4.30
2017-08-07T19:17:23.082Z,5.00
2017-08-07T19:19:49.662Z,4.90
2017-08-07T19:22:16.286Z,4.80
2017-08-07T19:24:42.874Z,4.60
2017-08-07T19:27:09.465Z,5.40
2017-08-07T19:32:20.584Z,5.77
2017-08-07T19:34:47.159Z,5.90
2017-08-07T19:37:13.739Z,6.00
2017-08-07T19:39:40.425Z,5.10
2017-08-07T19:42:07.267Z,6.03
2017-08-07T19:44:33.904Z,6.10
2017-08-07T19:47:00.471Z,5.93
2017-08-07T19:49:27.104Z,5.90
2017-08-07T19:52:04.133Z,6.00
2017-08-07T19:54:30.713Z,5.80
2017-08-07T19:56:57.297Z,6.10
2017-08-07T19:59:23.993Z,5.40
2017-08-07T20:01:50.548Z,5.73
2017-08-07T20:04:17.129Z,5.40
2017-08-07T20:06:43.746Z,5.30
2017-08-07T20:09:10.400Z,5.60
2017-08-07T20:11:36.968Z,5.97
2017-08-07T20:14:03.553Z,4.80
2017-08-07T20:16:30.179Z,5.27
2017-08-07T20:18:56.744Z,4.73
2017-08-07T20:21:23.319Z,5.00
2017-08-07T20:23:49.918Z,4.57
2017-08-07T20:26:16.489Z,4.80
2017-08-07T20:28:43.061Z,5.00
2017-08-07T20:31:09.636Z,5.03
2017-08-07T20:33:36.272Z,4.73
2017-08-07T20:36:02.864Z,4.60
2017-08-07T20:38:29.465Z,4.10
2017-08-07T20:40:56.056Z,4.53
2017-08-07T20:43:22.624Z,4.50
2017-08-07T20:45:49.196Z,4.47
2017-08-07T20:48:15.768Z,4.83
2017-08-07T20:50:42.379Z,5.00
2017-08-07T20:53:08.973Z,4.70
2017-08-07T20:55:36.005Z,4.27
2017-08-07T20:58:02.584Z,4.20
2017-08-07T21:00:29.173Z,4.50
2017-08-07T21:02:55.742Z,4.77
2017-08-07T21:05:22.320Z,4.70
2017-08-07T21:07:48.892Z,5.07
2017-08-07T21:10:15.482Z,4.90
2017-08-07T21:12:42.143Z,4.80
2017-08-07T21:15:08.914Z,4.83
2017-08-07T21:17:35.512Z,4.97
2017-08-07T21:20:02.076Z,4.63
2017-08-07T21:22:28.652Z,5.10
2017-08-07T21:24:55.229Z,4.50
2017-08-07T21:27:21.805Z,4.60
2017-08-07T21:29:48.517Z,4.43
2017-08-07T21:32:15.065Z,4.30
2017-08-07T21:34:41.657Z,5.17
2017-08-07T21:37:08.273Z,4.40
2017-08-07T21:39:34.891Z,4.53
2017-08-07T21:42:01.485Z,4.90
2017-08-07T21:44:28.060Z,4.63
2017-08-07T21:46:54.662Z,4.50
2017-08-07T21:49:21.228Z,4.80
2017-08-07T21:51:47.804Z,4.33
2017-08-07T21:54:14.400Z,4.90
2017-08-07T21:56:40.972Z,4.37
2017-08-07T21:59:07.568Z,4.73
2017-08-07T22:01:34.183Z,4.63
2017-08-07T22:04:00.745Z,4.33
2017-08-07T22:06:27.324Z,4.20
2017-08-07T22:08:53.900Z,4.13
2017-08-07T22:11:20.482Z,4.60
2017-08-07T22:13:47.076Z,4.67
2017-08-07T22:16:13.680Z,8.10
2017-08-07T22:18:40.285Z,11.10
2017-08-07T22:21:07.351Z,5.77
2017-08-07T22:23:33.924Z,4.70
2017-08-07T22:26:00.537Z,4.70
2017-08-07T22:28:27.120Z,4.50
2017-08-07T22:30:53.697Z,4.80
2017-08-07T22:33:24.728Z,4.93
2017-08-07T22:35:51.347Z,4.47
2017-08-07T22:38:17.921Z,4.70
2017-08-07T22:40:44.497Z,4.50
2017-08-07T22:43:11.128Z,4.10
2017-08-07T22:45:38.433Z,4.23
2017-08-07T22:48:05.203Z,4.10
2017-08-07T22:50:31.764Z,4.13
2017-08-07T22:52:58.354Z,4.60
2017-08-07T22:55:24.928Z,4.70
2017-08-07T22:57:51.613Z,4.30
2017-08-07T23:00:18.184Z,4.90
2017-08-07T23:02:44.786Z,4.57
2017-08-07T23:05:11.480Z,4.70
2017-08-07T23:07:38.086Z,4.13
2017-08-07T23:10:04.733Z,3.90
2017-08-07T23:12:31.304Z,4.60
2017-08-07T23:14:57.952Z,4.33
2017-08-07T23:17:24.521Z,4.30
2017-08-07T23:19:51.105Z,4.50
2017-08-07T23:22:17.683Z,4.63
2017-08-07T23:24:44.327Z,4.20
2017-08-07T23:27:11.120Z,4.10
2017-08-07T23:29:37.980Z,4.17
2017-08-07T23:32:04.581Z,4.67
2017-08-07T23:34:31.163Z,4.30
2017-08-07T23:36:57.749Z,4.10
2017-08-07T23:39:24.320Z,4.37
2017-08-07T23:41:50.907Z,3.97
2017-08-07T23:44:17.504Z,4.20
2017-08-07T23:46:44.073Z,3.90
2017-08-07T23:49:10.719Z,4.20
2017-08-07T23:51:37.990Z,4.00
2017-08-07T23:54:04.605Z,4.57
2017-08-07T23:56:31.246Z,4.40
2017-08-07T23:58:57.860Z,4.37
